sensor_id;sensor_type;location;lat;lon;timestamp;P1;durP1;ratioP1;P2;durP2;ratioP2
24567;SDS011;12731;52.182;8.716;2022-08-02T00:02:19;6.15;;;2.80;;
24567;SDS011;12731;52.182;8.716;2022-08-02T00:04:46;8.57;;;2.60;;
24567;SDS011;12731;52.182;8.716;2022-08-02T00:07:13;5.05;;;2.58;;
24567;SDS011;12731;52.182;8.716;2022-08-02T00:09:41;7.30;;;3.08;;
24567;SDS011;12731;52.182;8.716;2022-08-02T00:12:07;7.68;;;3.10;;
24567;SDS011;12731;52.182;8.716;2022-08-02T00:14:35;6.03;;;2.90;;
24567;SDS011;12731;52.182;8.716;2022-08-02T00:17:02;7.70;;;3.05;;
24567;SDS011;12731;52.182;8.716;2022-08-02T00:19:28;7.50;;;3.13;;
24567;SDS011;12731;52.182;8.716;2022-08-02T00:21:55;9.15;;;2.85;;
24567;SDS011;12731;52.182;8.716;2022-08-02T00:24:21;9.65;;;2.83;;
24567;SDS011;12731;52.182;8.716;2022-08-02T00:26:56;7.85;;;3.17;;
24567;SDS011;12731;52.182;8.716;2022-08-02T00:29:24;8.95;;;3.28;;
24567;SDS011;12731;52.182;8.716;2022-08-02T00:31:50;9.43;;;2.85;;
24567;SDS011;12731;52.182;8.716;2022-08-02T00:34:17;5.20;;;2.60;;
24567;SDS011;12731;52.182;8.716;2022-08-02T00:36:57;8.45;;;3.10;;
24567;SDS011;12731;52.182;8.716;2022-08-02T00:39:23;7.13;;;2.85;;
24567;SDS011;12731;52.182;8.716;2022-08-02T00:42:01;8.82;;;2.90;;
24567;SDS011;12731;52.182;8.716;2022-08-02T00:44:28;8.63;;;3.20;;
24567;SDS011;12731;52.182;8.716;2022-08-02T00:46:54;5.32;;;2.97;;
24567;SDS011;12731;52.182;8.716;2022-08-02T00:49:21;8.10;;;3.20;;
24567;SDS011;12731;52.182;8.716;2022-08-02T00:51:47;9.40;;;3.53;;
24567;SDS011;12731;52.182;8.716;2022-08-02T00:54:14;10.55;;;3.15;;
24567;SDS011;12731;52.182;8.716;2022-08-02T00:56:40;9.85;;;3.55;;
24567;SDS011;12731;52.182;8.716;2022-08-02T00:59:16;6.05;;;3.17;;
24567;SDS011;12731;52.182;8.716;2022-08-02T01:01:43;9.10;;;3.72;;
24567;SDS011;12731;52.182;8.716;2022-08-02T01:04:23;10.23;;;3.28;;
24567;SDS011;12731;52.182;8.716;2022-08-02T01:06:57;7.50;;;3.03;;
24567;SDS011;12731;52.182;8.716;2022-08-02T01:09:25;8.25;;;3.30;;
24567;SDS011;12731;52.182;8.716;2022-08-02T01:11:51;4.75;;;2.97;;
24567;SDS011;12731;52.182;8.716;2022-08-02T01:14:18;10.20;;;3.30;;
24567;SDS011;12731;52.182;8.716;2022-08-02T01:16:46;6.30;;;3.00;;
24567;SDS011;12731;52.182;8.716;2022-08-02T01:19:40;7.47;;;3.17;;
24567;SDS011;12731;52.182;8.716;2022-08-02T01:28:21;7.13;;;3.40;;
24567;SDS011;12731;52.182;8.716;2022-08-02T01:30:55;9.55;;;3.30;;
24567;SDS011;12731;52.182;8.716;2022-08-02T01:33:24;8.88;;;3.40;;
24567;SDS011;12731;52.182;8.716;2022-08-02T01:35:53;9.85;;;3.45;;
24567;SDS011;12731;52.182;8.716;2022-08-02T01:38:26;7.47;;;3.78;;
24567;SDS011;12731;52.182;8.716;2022-08-02T01:40:56;12.32;;;3.45;;
24567;SDS011;12731;52.182;8.716;2022-08-02T01:43:23;12.02;;;3.60;;
24567;SDS011;12731;52.182;8.716;2022-08-02T01:45:51;9.00;;;3.58;;
24567;SDS011;12731;52.182;8.716;2022-08-02T01:48:18;8.45;;;3.38;;
24567;SDS011;12731;52.182;8.716;2022-08-02T01:50:45;10.55;;;3.80;;
24567;SDS011;12731;52.182;8.716;2022-08-02T01:53:13;6.40;;;3.33;;
24567;SDS011;12731;52.182;8.716;2022-08-02T01:55:44;8.73;;;3.22;;
24567;SDS011;12731;52.182;8.716;2022-08-02T01:58:25;7.70;;;3.90;;
24567;SDS011;12731;52.182;8.716;2022-08-02T02:00:52;8.55;;;3.80;;
24567;SDS011;12731;52.182;8.716;2022-08-02T02:03:22;9.90;;;3.67;;
24567;SDS011;12731;52.182;8.716;2022-08-02T02:05:50;8.63;;;3.50;;
24567;SDS011;12731;52.182;8.716;2022-08-02T02:08:22;8.15;;;3.67;;
24567;SDS011;12731;52.182;8.716;2022-08-02T02:10:52;10.77;;;4.43;;
24567;SDS011;12731;52.182;8.716;2022-08-02T02:13:21;9.23;;;3.75;;
24567;SDS011;12731;52.182;8.716;2022-08-02T02:15:59;8.43;;;3.40;;
24567;SDS011;12731;52.182;8.716;2022-08-02T02:18:29;9.98;;;4.07;;
24567;SDS011;12731;52.182;8.716;2022-08-02T02:20:55;10.00;;;4.20;;
24567;SDS011;12731;52.182;8.716;2022-08-02T02:23:22;8.55;;;3.83;;
24567;SDS011;12731;52.182;8.716;2022-08-02T02:25:51;9.68;;;4.45;;
24567;SDS011;12731;52.182;8.716;2022-08-02T02:28:22;7.50;;;4.40;;
24567;SDS011;12731;52.182;8.716;2022-08-02T02:30:59;9.45;;;4.07;;
24567;SDS011;12731;52.182;8.716;2022-08-02T02:33:27;8.13;;;4.13;;
24567;SDS011;12731;52.182;8.716;2022-08-02T02:35:55;9.32;;;4.30;;
24567;SDS011;12731;52.182;8.716;2022-08-02T02:38:22;13.35;;;5.13;;
24567;SDS011;12731;52.182;8.716;2022-08-02T02:40:53;11.45;;;4.20;;
24567;SDS011;12731;52.182;8.716;2022-08-02T02:43:21;8.63;;;4.22;;
24567;SDS011;12731;52.182;8.716;2022-08-02T02:45:49;8.25;;;4.05;;
24567;SDS011;12731;52.182;8.716;2022-08-02T02:48:17;10.45;;;4.45;;
24567;SDS011;12731;52.182;8.716;2022-08-02T02:50:43;6.18;;;3.95;;
24567;SDS011;12731;52.182;8.716;2022-08-02T02:53:10;9.75;;;3.85;;
24567;SDS011;12731;52.182;8.716;2022-08-02T02:55:37;6.50;;;3.83;;
24567;SDS011;12731;52.182;8.716;2022-08-02T02:58:05;8.98;;;4.20;;
24567;SDS011;12731;52.182;8.716;2022-08-02T03:00:31;8.88;;;4.47;;
24567;SDS011;12731;52.182;8.716;2022-08-02T03:03:17;11.55;;;4.22;;
24567;SDS011;12731;52.182;8.716;2022-08-02T03:05:47;9.30;;;4.15;;
24567;SDS011;12731;52.182;8.716;2022-08-02T03:08:13;6.40;;;4.30;;
24567;SDS011;12731;52.182;8.716;2022-08-02T03:10:41;9.48;;;4.40;;
24567;SDS011;12731;52.182;8.716;2022-08-02T03:13:09;7.55;;;4.22;;
24567;SDS011;12731;52.182;8.716;2022-08-02T03:15:36;9.68;;;4.45;;
24567;SDS011;12731;52.182;8.716;2022-08-02T03:18:02;6.38;;;4.18;;
24567;SDS011;12731;52.182;8.716;2022-08-02T03:20:29;7.85;;;4.30;;
24567;SDS011;12731;52.182;8.716;2022-08-02T03:22:55;13.90;;;4.53;;
24567;SDS011;12731;52.182;8.716;2022-08-02T03:25:22;9.23;;;4.55;;
24567;SDS011;12731;52.182;8.716;2022-08-02T03:27:48;8.90;;;4.00;;
24567;SDS011;12731;52.182;8.716;2022-08-02T03:30:15;6.78;;;4.25;;
24567;SDS011;12731;52.182;8.716;2022-08-02T03:32:43;10.18;;;4.78;;
24567;SDS011;12731;52.182;8.716;2022-08-02T03:35:11;7.68;;;4.00;;
24567;SDS011;12731;52.182;8.716;2022-08-02T03:37:43;8.07;;;4.10;;
24567;SDS011;12731;52.182;8.716;2022-08-02T03:40:10;9.02;;;4.30;;
24567;SDS011;12731;52.182;8.716;2022-08-02T03:42:38;9.65;;;4.63;;
24567;SDS011;12731;52.182;8.716;2022-08-02T03:45:06;8.82;;;4.68;;
24567;SDS011;12731;52.182;8.716;2022-08-02T03:47:36;9.57;;;4.93;;
24567;SDS011;12731;52.182;8.716;2022-08-02T03:50:04;10.65;;;4.50;;
24567;SDS011;12731;52.182;8.716;2022-08-02T03:52:32;12.45;;;5.22;;
24567;SDS011;12731;52.182;8.716;2022-08-02T03:54:59;9.10;;;4.72;;
24567;SDS011;12731;52.182;8.716;2022-08-02T03:57:26;9.20;;;5.05;;
24567;SDS011;12731;52.182;8.716;2022-08-02T03:59:52;12.55;;;4.97;;
24567;SDS011;12731;52.182;8.716;2022-08-02T04:02:19;10.48;;;4.75;;
24567;SDS011;12731;52.182;8.716;2022-08-02T04:04:45;9.27;;;4.88;;
24567;SDS011;12731;52.182;8.716;2022-08-02T04:07:12;10.10;;;4.43;;
24567;SDS011;12731;52.182;8.716;2022-08-02T04:09:38;7.88;;;4.60;;
24567;SDS011;12731;52.182;8.716;2022-08-02T04:12:05;7.13;;;4.85;;
24567;SDS011;12731;52.182;8.716;2022-08-02T04:14:31;10.25;;;4.88;;
24567;SDS011;12731;52.182;8.716;2022-08-02T04:17:03;9.32;;;5.10;;
24567;SDS011;12731;52.182;8.716;2022-08-02T04:22:17;12.30;;;5.03;;
24567;SDS011;12731;52.182;8.716;2022-08-02T04:24:46;9.20;;;5.50;;
24567;SDS011;12731;52.182;8.716;2022-08-02T04:27:15;7.50;;;4.57;;
24567;SDS011;12731;52.182;8.716;2022-08-02T04:30:03;10.43;;;4.78;;
24567;SDS011;12731;52.182;8.716;2022-08-02T04:32:30;8.43;;;5.07;;
24567;SDS011;12731;52.182;8.716;2022-08-02T04:34:57;6.65;;;4.85;;
24567;SDS011;12731;52.182;8.716;2022-08-02T04:37:44;11.45;;;5.30;;
24567;SDS011;12731;52.182;8.716;2022-08-02T04:40:30;8.70;;;5.00;;
24567;SDS011;12731;52.182;8.716;2022-08-02T04:42:57;8.32;;;5.30;;
24567;SDS011;12731;52.182;8.716;2022-08-02T04:45:24;11.13;;;5.18;;
24567;SDS011;12731;52.182;8.716;2022-08-02T04:47:50;9.52;;;5.20;;
24567;SDS011;12731;52.182;8.716;2022-08-02T04:50:28;9.52;;;5.60;;
24567;SDS011;12731;52.182;8.716;2022-08-02T04:52:55;9.88;;;5.13;;
24567;SDS011;12731;52.182;8.716;2022-08-02T04:55:22;6.88;;;5.43;;
24567;SDS011;12731;52.182;8.716;2022-08-02T04:57:53;10.55;;;5.57;;
24567;SDS011;12731;52.182;8.716;2022-08-02T05:00:20;9.27;;;5.78;;
24567;SDS011;12731;52.182;8.716;2022-08-02T05:02:47;11.75;;;5.65;;
24567;SDS011;12731;52.182;8.716;2022-08-02T05:05:14;10.10;;;5.93;;
24567;SDS011;12731;52.182;8.716;2022-08-02T05:07:41;11.85;;;5.60;;
24567;SDS011;12731;52.182;8.716;2022-08-02T05:10:08;7.88;;;5.38;;
24567;SDS011;12731;52.182;8.716;2022-08-02T05:12:36;9.07;;;5.40;;
24567;SDS011;12731;52.182;8.716;2022-08-02T05:15:05;7.68;;;5.03;;
24567;SDS011;12731;52.182;8.716;2022-08-02T05:17:38;7.82;;;5.05;;
24567;SDS011;12731;52.182;8.716;2022-08-02T05:20:12;12.27;;;5.90;;
24567;SDS011;12731;52.182;8.716;2022-08-02T05:22:40;8.80;;;5.60;;
24567;SDS011;12731;52.182;8.716;2022-08-02T05:25:07;10.10;;;5.53;;
24567;SDS011;12731;52.182;8.716;2022-08-02T05:27:34;12.13;;;6.47;;
24567;SDS011;12731;52.182;8.716;2022-08-02T05:30:00;10.65;;;6.40;;
24567;SDS011;12731;52.182;8.716;2022-08-02T05:32:27;13.35;;;6.25;;
24567;SDS011;12731;52.182;8.716;2022-08-02T05:34:53;8.93;;;5.85;;
24567;SDS011;12731;52.182;8.716;2022-08-02T05:37:20;11.40;;;6.38;;
24567;SDS011;12731;52.182;8.716;2022-08-02T05:39:46;14.02;;;6.57;;
24567;SDS011;12731;52.182;8.716;2022-08-02T05:42:21;7.63;;;5.65;;
24567;SDS011;12731;52.182;8.716;2022-08-02T05:44:48;11.27;;;6.18;;
24567;SDS011;12731;52.182;8.716;2022-08-02T05:47:14;10.07;;;5.97;;
24567;SDS011;12731;52.182;8.716;2022-08-02T05:49:41;11.07;;;5.03;;
24567;SDS011;12731;52.182;8.716;2022-08-02T05:52:09;11.02;;;6.30;;
24567;SDS011;12731;52.182;8.716;2022-08-02T05:54:48;10.70;;;6.00;;
24567;SDS011;12731;52.182;8.716;2022-08-02T05:57:33;10.18;;;5.60;;
24567;SDS011;12731;52.182;8.716;2022-08-02T06:00:10;10.40;;;6.10;;
24567;SDS011;12731;52.182;8.716;2022-08-02T06:07:39;10.40;;;6.20;;
24567;SDS011;12731;52.182;8.716;2022-08-02T06:10:07;13.80;;;6.63;;
24567;SDS011;12731;52.182;8.716;2022-08-02T06:12:36;9.93;;;6.00;;
24567;SDS011;12731;52.182;8.716;2022-08-02T06:15:07;10.20;;;6.75;;
24567;SDS011;12731;52.182;8.716;2022-08-02T06:17:33;11.25;;;5.78;;
24567;SDS011;12731;52.182;8.716;2022-08-02T06:20:07;11.18;;;6.28;;
24567;SDS011;12731;52.182;8.716;2022-08-02T06:22:34;10.27;;;6.47;;
24567;SDS011;12731;52.182;8.716;2022-08-02T06:25:03;11.32;;;6.78;;
24567;SDS011;12731;52.182;8.716;2022-08-02T06:27:30;13.52;;;6.70;;
24567;SDS011;12731;52.182;8.716;2022-08-02T06:29:57;9.98;;;5.82;;
24567;SDS011;12731;52.182;8.716;2022-08-02T06:32:23;11.32;;;6.88;;
24567;SDS011;12731;52.182;8.716;2022-08-02T06:34:51;12.10;;;6.32;;
24567;SDS011;12731;52.182;8.716;2022-08-02T06:37:37;12.35;;;5.85;;
24567;SDS011;12731;52.182;8.716;2022-08-02T06:40:13;9.38;;;5.72;;
24567;SDS011;12731;52.182;8.716;2022-08-02T06:42:54;8.63;;;5.03;;
24567;SDS011;12731;52.182;8.716;2022-08-02T06:45:28;13.25;;;5.50;;
24567;SDS011;12731;52.182;8.716;2022-08-02T06:47:54;10.15;;;5.60;;
24567;SDS011;12731;52.182;8.716;2022-08-02T06:50:20;13.50;;;6.72;;
24567;SDS011;12731;52.182;8.716;2022-08-02T06:52:47;12.60;;;5.28;;
24567;SDS011;12731;52.182;8.716;2022-08-02T06:55:13;9.90;;;5.68;;
24567;SDS011;12731;52.182;8.716;2022-08-02T06:57:40;13.18;;;7.35;;
24567;SDS011;12731;52.182;8.716;2022-08-02T07:00:07;13.05;;;7.70;;
24567;SDS011;12731;52.182;8.716;2022-08-02T07:02:34;12.85;;;7.38;;
24567;SDS011;12731;52.182;8.716;2022-08-02T07:05:02;11.85;;;7.90;;
24567;SDS011;12731;52.182;8.716;2022-08-02T07:07:29;11.68;;;8.98;;
24567;SDS011;12731;52.182;8.716;2022-08-02T07:09:56;14.80;;;8.85;;
24567;SDS011;12731;52.182;8.716;2022-08-02T07:12:30;12.98;;;9.10;;
24567;SDS011;12731;52.182;8.716;2022-08-02T07:14:58;9.82;;;7.82;;
24567;SDS011;12731;52.182;8.716;2022-08-02T07:17:25;9.52;;;7.85;;
24567;SDS011;12731;52.182;8.716;2022-08-02T07:19:52;11.00;;;7.85;;
24567;SDS011;12731;52.182;8.716;2022-08-02T07:22:18;11.45;;;7.47;;
24567;SDS011;12731;52.182;8.716;2022-08-02T07:24:48;10.50;;;7.82;;
24567;SDS011;12731;52.182;8.716;2022-08-02T07:27:15;9.88;;;6.50;;
24567;SDS011;12731;52.182;8.716;2022-08-02T07:29:41;10.10;;;6.03;;
24567;SDS011;12731;52.182;8.716;2022-08-02T07:32:13;9.45;;;6.10;;
24567;SDS011;12731;52.182;8.716;2022-08-02T07:34:47;8.18;;;5.60;;
24567;SDS011;12731;52.182;8.716;2022-08-02T07:37:22;8.75;;;5.60;;
24567;SDS011;12731;52.182;8.716;2022-08-02T07:40:10;8.68;;;5.20;;
24567;SDS011;12731;52.182;8.716;2022-08-02T07:42:45;9.07;;;5.70;;
24567;SDS011;12731;52.182;8.716;2022-08-02T07:45:12;9.35;;;5.05;;
24567;SDS011;12731;52.182;8.716;2022-08-02T07:47:40;8.55;;;5.10;;
24567;SDS011;12731;52.182;8.716;2022-08-02T07:50:08;8.50;;;4.70;;
24567;SDS011;12731;52.182;8.716;2022-08-02T07:52:35;6.35;;;3.90;;
24567;SDS011;12731;52.182;8.716;2022-08-02T07:55:02;5.20;;;3.60;;
24567;SDS011;12731;52.182;8.716;2022-08-02T07:57:29;5.97;;;3.90;;
24567;SDS011;12731;52.182;8.716;2022-08-02T07:59:56;9.27;;;3.78;;
24567;SDS011;12731;52.182;8.716;2022-08-02T08:02:22;5.80;;;3.80;;
24567;SDS011;12731;52.182;8.716;2022-08-02T08:04:50;7.10;;;3.75;;
24567;SDS011;12731;52.182;8.716;2022-08-02T08:07:17;6.82;;;3.80;;
24567;SDS011;12731;52.182;8.716;2022-08-02T08:09:44;7.78;;;3.70;;
24567;SDS011;12731;52.182;8.716;2022-08-02T08:12:12;7.97;;;4.25;;
24567;SDS011;12731;52.182;8.716;2022-08-02T08:14:42;16.05;;;3.88;;
24567;SDS011;12731;52.182;8.716;2022-08-02T08:17:08;10.25;;;3.95;;
24567;SDS011;12731;52.182;8.716;2022-08-02T08:19:35;7.38;;;4.45;;
24567;SDS011;12731;52.182;8.716;2022-08-02T08:22:17;7.45;;;3.97;;
24567;SDS011;12731;52.182;8.716;2022-08-02T08:24:47;8.45;;;4.03;;
24567;SDS011;12731;52.182;8.716;2022-08-02T08:27:14;8.20;;;4.18;;
24567;SDS011;12731;52.182;8.716;2022-08-02T08:29:42;10.70;;;4.60;;
24567;SDS011;12731;52.182;8.716;2022-08-02T08:32:08;7.90;;;4.18;;
24567;SDS011;12731;52.182;8.716;2022-08-02T08:34:42;5.57;;;3.45;;
24567;SDS011;12731;52.182;8.716;2022-08-02T08:37:08;6.28;;;3.80;;
24567;SDS011;12731;52.182;8.716;2022-08-02T08:39:42;5.90;;;3.70;;
24567;SDS011;12731;52.182;8.716;2022-08-02T08:42:27;8.30;;;3.60;;
24567;SDS011;12731;52.182;8.716;2022-08-02T08:44:54;6.25;;;3.65;;
24567;SDS011;12731;52.182;8.716;2022-08-02T08:47:22;6.28;;;3.00;;
24567;SDS011;12731;52.182;8.716;2022-08-02T08:49:50;3.97;;;2.83;;
24567;SDS011;12731;52.182;8.716;2022-08-02T08:52:19;5.47;;;2.70;;
24567;SDS011;12731;52.182;8.716;2022-08-02T08:54:47;7.72;;;2.72;;
24567;SDS011;12731;52.182;8.716;2022-08-02T08:57:15;6.57;;;2.80;;
24567;SDS011;12731;52.182;8.716;2022-08-02T08:59:41;5.30;;;2.28;;
24567;SDS011;12731;52.182;8.716;2022-08-02T09:02:09;6.75;;;2.45;;
24567;SDS011;12731;52.182;8.716;2022-08-02T09:04:48;5.05;;;2.72;;
24567;SDS011;12731;52.182;8.716;2022-08-02T09:07:20;4.57;;;1.75;;
24567;SDS011;12731;52.182;8.716;2022-08-02T09:09:46;4.50;;;2.20;;
24567;SDS011;12731;52.182;8.716;2022-08-02T09:12:18;5.15;;;2.20;;
24567;SDS011;12731;52.182;8.716;2022-08-02T09:14:47;5.38;;;2.80;;
24567;SDS011;12731;52.182;8.716;2022-08-02T09:17:15;6.78;;;2.50;;
24567;SDS011;12731;52.182;8.716;2022-08-02T09:19:42;7.20;;;2.50;;
24567;SDS011;12731;52.182;8.716;2022-08-02T09:22:11;5.07;;;2.20;;
24567;SDS011;12731;52.182;8.716;2022-08-02T09:27:09;4.15;;;2.20;;
24567;SDS011;12731;52.182;8.716;2022-08-02T09:29:37;4.32;;;1.85;;
24567;SDS011;12731;52.182;8.716;2022-08-02T09:32:23;4.43;;;1.90;;
24567;SDS011;12731;52.182;8.716;2022-08-02T09:34:51;4.05;;;2.15;;
24567;SDS011;12731;52.182;8.716;2022-08-02T09:37:23;4.28;;;2.03;;
24567;SDS011;12731;52.182;8.716;2022-08-02T09:39:53;6.95;;;2.28;;
24567;SDS011;12731;52.182;8.716;2022-08-02T09:42:25;4.97;;;2.20;;
24567;SDS011;12731;52.182;8.716;2022-08-02T09:44:57;4.38;;;1.70;;
24567;SDS011;12731;52.182;8.716;2022-08-02T09:47:26;4.10;;;2.03;;
24567;SDS011;12731;52.182;8.716;2022-08-02T09:49:56;3.65;;;1.60;;
24567;SDS011;12731;52.182;8.716;2022-08-02T09:52:29;6.10;;;2.00;;
24567;SDS011;12731;52.182;8.716;2022-08-02T09:55:09;3.92;;;1.70;;
24567;SDS011;12731;52.182;8.716;2022-08-02T09:57:36;2.28;;;1.50;;
24567;SDS011;12731;52.182;8.716;2022-08-02T10:00:06;5.90;;;1.90;;
24567;SDS011;12731;52.182;8.716;2022-08-02T10:05:48;5.05;;;1.90;;
24567;SDS011;12731;52.182;8.716;2022-08-02T10:08:22;2.67;;;1.63;;
24567;SDS011;12731;52.182;8.716;2022-08-02T10:10:50;3.83;;;1.50;;
24567;SDS011;12731;52.182;8.716;2022-08-02T10:13:29;2.38;;;1.50;;
24567;SDS011;12731;52.182;8.716;2022-08-02T10:15:57;6.63;;;1.77;;
24567;SDS011;12731;52.182;8.716;2022-08-02T10:18:23;4.35;;;1.50;;
24567;SDS011;12731;52.182;8.716;2022-08-02T10:21:05;3.55;;;1.73;;
24567;SDS011;12731;52.182;8.716;2022-08-02T10:23:33;3.30;;;1.60;;
24567;SDS011;12731;52.182;8.716;2022-08-02T10:26:02;3.33;;;1.60;;
24567;SDS011;12731;52.182;8.716;2022-08-02T10:28:29;2.15;;;1.50;;
24567;SDS011;12731;52.182;8.716;2022-08-02T10:31:00;2.35;;;1.60;;
24567;SDS011;12731;52.182;8.716;2022-08-02T10:33:30;2.45;;;1.55;;
24567;SDS011;12731;52.182;8.716;2022-08-02T10:35:59;3.22;;;1.85;;
24567;SDS011;12731;52.182;8.716;2022-08-02T10:38:32;4.85;;;1.67;;
24567;SDS011;12731;52.182;8.716;2022-08-02T10:40:59;3.38;;;1.80;;
24567;SDS011;12731;52.182;8.716;2022-08-02T10:49:12;4.55;;;2.13;;
24567;SDS011;12731;52.182;8.716;2022-08-02T10:54:27;3.17;;;1.55;;
24567;SDS011;12731;52.182;8.716;2022-08-02T10:56:55;4.82;;;1.77;;
24567;SDS011;12731;52.182;8.716;2022-08-02T11:02:02;3.60;;;2.10;;
24567;SDS011;12731;52.182;8.716;2022-08-02T11:04:31;4.63;;;1.73;;
24567;SDS011;12731;52.182;8.716;2022-08-02T11:09:42;2.22;;;1.88;;
24567;SDS011;12731;52.182;8.716;2022-08-02T11:12:17;4.75;;;2.30;;
24567;SDS011;12731;52.182;8.716;2022-08-02T11:14:45;3.88;;;2.10;;
24567;SDS011;12731;52.182;8.716;2022-08-02T11:17:24;3.17;;;1.90;;
24567;SDS011;12731;52.182;8.716;2022-08-02T11:22:36;3.70;;;1.90;;
24567;SDS011;12731;52.182;8.716;2022-08-02T11:28:06;3.13;;;1.90;;
24567;SDS011;12731;52.182;8.716;2022-08-02T11:30:34;4.75;;;1.70;;
24567;SDS011;12731;52.182;8.716;2022-08-02T11:33:01;4.07;;;1.70;;
24567;SDS011;12731;52.182;8.716;2022-08-02T11:35:32;5.07;;;1.73;;
24567;SDS011;12731;52.182;8.716;2022-08-02T11:38:11;4.13;;;2.00;;
24567;SDS011;12731;52.182;8.716;2022-08-02T11:40:47;2.33;;;1.73;;
24567;SDS011;12731;52.182;8.716;2022-08-02T11:43:15;4.05;;;1.80;;
24567;SDS011;12731;52.182;8.716;2022-08-02T11:45:42;2.65;;;1.60;;
24567;SDS011;12731;52.182;8.716;2022-08-02T11:48:09;5.90;;;2.00;;
24567;SDS011;12731;52.182;8.716;2022-08-02T11:50:35;2.83;;;1.80;;
24567;SDS011;12731;52.182;8.716;2022-08-02T11:53:11;2.45;;;1.70;;
24567;SDS011;12731;52.182;8.716;2022-08-02T11:55:38;4.35;;;2.03;;
24567;SDS011;12731;52.182;8.716;2022-08-02T11:58:05;2.97;;;1.83;;
24567;SDS011;12731;52.182;8.716;2022-08-02T12:00:34;3.92;;;2.20;;
24567;SDS011;12731;52.182;8.716;2022-08-02T12:03:01;5.20;;;2.30;;
24567;SDS011;12731;52.182;8.716;2022-08-02T12:05:27;2.90;;;1.83;;
24567;SDS011;12731;52.182;8.716;2022-08-02T12:08:14;4.07;;;1.80;;
24567;SDS011;12731;52.182;8.716;2022-08-02T12:10:47;3.03;;;1.60;;
24567;SDS011;12731;52.182;8.716;2022-08-02T12:13:14;3.03;;;1.80;;
24567;SDS011;12731;52.182;8.716;2022-08-02T12:15:42;2.47;;;1.63;;
24567;SDS011;12731;52.182;8.716;2022-08-02T12:18:11;3.17;;;2.00;;
24567;SDS011;12731;52.182;8.716;2022-08-02T12:20:57;2.28;;;1.83;;
24567;SDS011;12731;52.182;8.716;2022-08-02T12:23:24;3.58;;;1.70;;
24567;SDS011;12731;52.182;8.716;2022-08-02T12:25:58;3.53;;;1.73;;
24567;SDS011;12731;52.182;8.716;2022-08-02T12:28:26;3.20;;;1.90;;
24567;SDS011;12731;52.182;8.716;2022-08-02T12:30:56;4.03;;;1.77;;
24567;SDS011;12731;52.182;8.716;2022-08-02T12:35:55;2.95;;;1.73;;
24567;SDS011;12731;52.182;8.716;2022-08-02T12:38:22;2.38;;;1.58;;
24567;SDS011;12731;52.182;8.716;2022-08-02T12:40:48;7.70;;;1.70;;
24567;SDS011;12731;52.182;8.716;2022-08-02T12:43:16;1.98;;;1.30;;
24567;SDS011;12731;52.182;8.716;2022-08-02T12:45:51;4.80;;;1.63;;
24567;SDS011;12731;52.182;8.716;2022-08-02T12:48:35;3.13;;;1.40;;
24567;SDS011;12731;52.182;8.716;2022-08-02T12:54:15;2.47;;;1.75;;
24567;SDS011;12731;52.182;8.716;2022-08-02T12:56:56;4.07;;;1.70;;
24567;SDS011;12731;52.182;8.716;2022-08-02T12:59:36;2.17;;;1.50;;
24567;SDS011;12731;52.182;8.716;2022-08-02T13:04:31;4.65;;;1.77;;
24567;SDS011;12731;52.182;8.716;2022-08-02T13:06:58;4.00;;;1.65;;
24567;SDS011;12731;52.182;8.716;2022-08-02T13:09:25;4.20;;;1.70;;
24567;SDS011;12731;52.182;8.716;2022-08-02T13:11:54;2.17;;;1.52;;
24567;SDS011;12731;52.182;8.716;2022-08-02T13:14:21;4.82;;;1.90;;
24567;SDS011;12731;52.182;8.716;2022-08-02T13:16:47;2.90;;;1.70;;
24567;SDS011;12731;52.182;8.716;2022-08-02T13:19:14;2.47;;;1.60;;
24567;SDS011;12731;52.182;8.716;2022-08-02T13:21:41;4.22;;;1.50;;
24567;SDS011;12731;52.182;8.716;2022-08-02T13:24:28;2.75;;;1.42;;
24567;SDS011;12731;52.182;8.716;2022-08-02T13:27:12;3.17;;;1.75;;
24567;SDS011;12731;52.182;8.716;2022-08-02T13:29:38;2.55;;;1.67;;
24567;SDS011;12731;52.182;8.716;2022-08-02T13:32:05;3.33;;;1.92;;
24567;SDS011;12731;52.182;8.716;2022-08-02T13:34:31;3.28;;;1.70;;
24567;SDS011;12731;52.182;8.716;2022-08-02T13:36:58;3.95;;;1.70;;
24567;SDS011;12731;52.182;8.716;2022-08-02T13:39:24;2.97;;;1.67;;
24567;SDS011;12731;52.182;8.716;2022-08-02T13:41:51;2.63;;;1.55;;
24567;SDS011;12731;52.182;8.716;2022-08-02T13:44:18;2.08;;;1.58;;
24567;SDS011;12731;52.182;8.716;2022-08-02T13:46:44;4.43;;;2.13;;
24567;SDS011;12731;52.182;8.716;2022-08-02T13:49:11;4.82;;;2.25;;
24567;SDS011;12731;52.182;8.716;2022-08-02T13:51:44;4.40;;;2.15;;
24567;SDS011;12731;52.182;8.716;2022-08-02T13:54:11;2.95;;;1.80;;
24567;SDS011;12731;52.182;8.716;2022-08-02T13:56:37;5.30;;;2.35;;
24567;SDS011;12731;52.182;8.716;2022-08-02T13:59:04;5.80;;;2.28;;
24567;SDS011;12731;52.182;8.716;2022-08-02T14:01:51;6.05;;;2.20;;
24567;SDS011;12731;52.182;8.716;2022-08-02T14:04:18;3.40;;;1.80;;
24567;SDS011;12731;52.182;8.716;2022-08-02T14:06:45;4.53;;;2.25;;
24567;SDS011;12731;52.182;8.716;2022-08-02T14:09:12;3.53;;;1.95;;
24567;SDS011;12731;52.182;8.716;2022-08-02T14:11:42;2.90;;;2.10;;
24567;SDS011;12731;52.182;8.716;2022-08-02T14:14:09;6.82;;;2.10;;
24567;SDS011;12731;52.182;8.716;2022-08-02T14:16:43;2.40;;;2.15;;
24567;SDS011;12731;52.182;8.716;2022-08-02T14:19:10;3.40;;;1.98;;
24567;SDS011;12731;52.182;8.716;2022-08-02T14:21:42;5.18;;;1.80;;
24567;SDS011;12731;52.182;8.716;2022-08-02T14:24:13;3.20;;;1.80;;
24567;SDS011;12731;52.182;8.716;2022-08-02T14:26:40;3.25;;;1.90;;
24567;SDS011;12731;52.182;8.716;2022-08-02T14:29:07;2.75;;;1.92;;
24567;SDS011;12731;52.182;8.716;2022-08-02T14:31:34;3.25;;;2.10;;
24567;SDS011;12731;52.182;8.716;2022-08-02T14:34:06;2.40;;;1.83;;
24567;SDS011;12731;52.182;8.716;2022-08-02T14:36:33;2.60;;;1.77;;
24567;SDS011;12731;52.182;8.716;2022-08-02T14:38:59;2.78;;;1.75;;
24567;SDS011;12731;52.182;8.716;2022-08-02T14:41:27;3.03;;;1.80;;
24567;SDS011;12731;52.182;8.716;2022-08-02T14:43:53;2.55;;;1.75;;
24567;SDS011;12731;52.182;8.716;2022-08-02T14:46:29;2.58;;;1.80;;
24567;SDS011;12731;52.182;8.716;2022-08-02T14:48:57;1.40;;;1.30;;
24567;SDS011;12731;52.182;8.716;2022-08-02T14:51:27;4.68;;;1.60;;
24567;SDS011;12731;52.182;8.716;2022-08-02T14:54:00;3.50;;;1.58;;
24567;SDS011;12731;52.182;8.716;2022-08-02T14:56:28;1.83;;;1.60;;
24567;SDS011;12731;52.182;8.716;2022-08-02T14:58:54;4.07;;;1.70;;
24567;SDS011;12731;52.182;8.716;2022-08-02T15:01:21;3.60;;;1.80;;
24567;SDS011;12731;52.182;8.716;2022-08-02T15:03:51;3.00;;;1.42;;
24567;SDS011;12731;52.182;8.716;2022-08-02T15:06:18;3.15;;;1.60;;
24567;SDS011;12731;52.182;8.716;2022-08-02T15:08:44;6.13;;;1.55;;
24567;SDS011;12731;52.182;8.716;2022-08-02T15:11:11;3.65;;;1.88;;
24567;SDS011;12731;52.182;8.716;2022-08-02T15:13:37;5.13;;;1.88;;
24567;SDS011;12731;52.182;8.716;2022-08-02T15:16:08;2.03;;;1.70;;
24567;SDS011;12731;52.182;8.716;2022-08-02T15:18:34;5.50;;;1.63;;
24567;SDS011;12731;52.182;8.716;2022-08-02T15:21:01;2.47;;;1.88;;
24567;SDS011;12731;52.182;8.716;2022-08-02T15:23:47;3.63;;;1.55;;
24567;SDS011;12731;52.182;8.716;2022-08-02T15:26:14;2.78;;;1.58;;
24567;SDS011;12731;52.182;8.716;2022-08-02T15:28:40;2.70;;;1.65;;
24567;SDS011;12731;52.182;8.716;2022-08-02T15:31:07;2.53;;;1.60;;
24567;SDS011;12731;52.182;8.716;2022-08-02T15:33:33;1.88;;;1.42;;
24567;SDS011;12731;52.182;8.716;2022-08-02T15:36:00;3.78;;;1.77;;
24567;SDS011;12731;52.182;8.716;2022-08-02T15:38:27;4.32;;;2.08;;
24567;SDS011;12731;52.182;8.716;2022-08-02T15:40:53;2.28;;;1.80;;
24567;SDS011;12731;52.182;8.716;2022-08-02T15:43:20;3.60;;;2.05;;
24567;SDS011;12731;52.182;8.716;2022-08-02T15:45:46;2.85;;;1.80;;
24567;SDS011;12731;52.182;8.716;2022-08-02T15:48:13;2.20;;;1.85;;